Time;durP1;ratioP1;P1;durP2;ratioP2;P2;SDS_P1;SDS_P2;PMS_P1;PMS_P2;Temp;Humidity;BMP_temperature;BMP_pressure;BME280_temperature;BME280_humidity;BME280_pressure;Samples;Min_cycle;Max_cycle;Signal;HPM_P1;HPM_P2
2022/07/14 00:00:18;;;;;;;4.43;1.67;;;23.10;53.10;;;22.36;56.75;96342.91;4965804;28;20502;-68
2022/07/14 00:02:44;;;;;;;3.42;1.50;;;23.10;53.30;;;22.30;56.96;96347.44;4950294;28;20071;-69
2022/07/14 00:05:10;;;;;;;2.50;1.63;;;23.00;52.90;;;22.26;57.21;96348.22;4965960;28;20592;-68
2022/07/14 00:07:36;;;;;;;4.55;1.83;;;23.00;53.20;;;22.19;57.49;96345.75;4962231;28;20065;-69
2022/07/14 00:10:02;;;;;;;5.88;1.65;;;22.90;53.50;;;22.16;57.44;96353.47;4967184;28;20185;-68
2022/07/14 00:12:28;;;;;;;6.03;1.70;;;22.90;53.40;;;22.12;57.68;96355.06;4964334;28;20491;-68
2022/07/14 00:14:53;;;;;;;3.00;1.40;;;22.80;53.70;;;22.06;57.91;96354.22;4965586;28;20119;-68
2022/07/14 00:17:19;;;;;;;3.88;1.60;;;22.80;54.10;;;22.02;57.88;96348.53;4965176;28;20077;-68
2022/07/14 00:19:45;;;;;;;3.70;1.58;;;22.80;54.00;;;22.00;58.71;96347.97;4965697;28;20601;-68
2022/07/14 00:22:11;;;;;;;2.78;1.50;;;22.80;54.50;;;21.98;58.82;96342.06;4965996;28;20475;-68
2022/07/14 00:24:36;;;;;;;8.48;1.85;;;22.80;54.90;;;21.96;59.74;96346.88;4967360;28;20521;-68
2022/07/14 00:27:02;;;;;;;2.58;1.50;;;22.70;55.00;;;21.93;59.22;96333.97;4962370;28;20524;-68
2022/07/14 00:29:28;;;;;;;10.80;1.63;;;22.70;55.20;;;21.89;59.71;96332.88;4962513;28;20166;-68
2022/07/14 00:31:54;;;;;;;2.80;1.42;;;22.60;55.30;;;21.86;60.15;96317.31;4965118;28;20402;-68
2022/07/14 00:34:19;;;;;;;4.88;1.83;;;22.60;55.50;;;21.84;60.17;96314.09;4962201;28;20570;-68
2022/07/14 00:36:45;;;;;;;6.57;1.55;;;22.60;55.70;;;21.83;60.29;96319.69;4966848;28;20570;-68
2022/07/14 00:39:11;;;;;;;6.32;1.77;;;22.60;55.80;;;21.82;60.69;96326.91;4964338;28;20038;-67
2022/07/14 00:41:37;;;;;;;4.97;1.85;;;22.60;56.10;;;21.81;60.04;96324.50;4962774;28;20118;-68
2022/07/14 00:44:03;;;;;;;3.70;1.55;;;22.60;55.50;;;21.77;60.74;96334.13;4967625;28;20065;-69
2022/07/14 00:46:28;;;;;;;4.55;1.80;;;22.60;55.70;;;21.75;60.52;96317.50;4965137;28;20126;-69
2022/07/14 00:48:54;;;;;;;6.00;1.92;;;22.50;55.80;;;21.70;60.23;96318.22;4966701;28;20073;-68
2022/07/14 00:51:20;;;;;;;3.13;1.73;;;22.50;55.70;;;21.68;60.43;96320.34;4951544;28;20070;-68
2022/07/14 00:53:52;;;;;;;4.75;1.67;;;22.50;55.90;;;21.63;61.00;96323.81;4970659;28;20059;-68
2022/07/14 00:56:18;;;;;;;6.50;1.70;;;22.30;55.50;;;21.58;60.24;96325.63;4971700;28;20058;-68
2022/07/14 00:58:44;;;;;;;6.97;1.60;;;22.20;55.90;;;21.51;60.59;96325.84;4963112;28;20431;-68
2022/07/14 01:01:09;;;;;;;3.55;1.27;;;22.20;56.00;;;21.45;60.21;96321.47;4969519;28;20114;-68
2022/07/14 01:03:36;;;;;;;3.28;1.38;;;22.10;55.70;;;21.40;60.80;96319.56;4965354;28;20125;-68
2022/07/14 01:06:01;;;;;;;3.42;1.65;;;22.10;55.80;;;21.33;60.03;96323.50;4968935;28;20406;-68
2022/07/14 01:08:27;;;;;;;3.28;1.55;;;22.00;55.60;;;21.28;60.08;96321.56;4971237;28;20054;-68
2022/07/14 01:10:53;;;;;;;2.50;1.42;;;21.90;55.00;;;21.22;60.03;96316.38;4969571;28;20436;-68
2022/07/14 01:13:19;;;;;;;5.50;1.38;;;21.90;54.80;;;21.19;59.39;96320.34;4949157;28;20585;-68
2022/07/14 01:15:44;;;;;;;4.53;1.33;;;21.90;55.00;;;21.18;60.06;96321.41;4970101;28;20071;-68
2022/07/14 01:18:10;;;;;;;3.88;1.90;;;21.90;55.10;;;21.17;59.40;96319.00;4968153;28;20126;-68
2022/07/14 01:20:36;;;;;;;5.35;1.20;;;22.00;54.30;;;21.12;59.20;96317.06;4966204;28;20041;-68
2022/07/14 01:23:02;;;;;;;3.03;1.40;;;21.80;54.30;;;21.12;59.02;96322.44;4968344;28;20089;-68
2022/07/14 01:25:27;;;;;;;4.68;1.30;;;21.90;54.30;;;21.07;59.82;96319.69;4965901;28;20105;-69
2022/07/14 01:27:53;;;;;;;3.28;1.30;;;21.80;54.30;;;21.02;59.23;96316.94;4968169;28;20042;-68
2022/07/14 01:30:19;;;;;;;4.22;1.30;;;21.70;54.50;;;20.97;59.62;96308.88;4969287;28;20494;-68
2022/07/14 01:32:45;;;;;;;3.85;1.60;;;21.60;54.90;;;20.97;59.16;96314.22;4968230;28;20579;-68
2022/07/14 01:35:11;;;;;;;7.95;1.33;;;21.70;54.60;;;20.99;60.27;96320.13;4968161;28;20027;-68
2022/07/14 01:37:36;;;;;;;1.92;1.10;;;21.70;54.80;;;21.00;60.10;96313.72;4965089;28;20071;-69
2022/07/14 01:40:02;;;;;;;6.95;1.25;;;21.80;54.80;;;21.00;60.17;96309.16;4950609;28;20053;-68
2022/07/14 01:42:28;;;;;;;4.75;1.25;;;21.80;54.60;;;21.01;59.57;96309.97;4969876;28;20027;-68
2022/07/14 01:44:54;;;;;;;3.95;1.40;;;21.80;54.90;;;21.01;59.74;96315.31;4969535;28;20089;-68
2022/07/14 01:47:20;;;;;;;3.97;1.30;;;21.80;54.90;;;21.02;59.74;96323.09;4968610;28;20427;-69
2022/07/14 01:49:45;;;;;;;2.75;1.20;;;21.90;55.20;;;21.03;60.83;96305.19;4964790;28;20083;-68
2022/07/14 01:52:11;;;;;;;3.15;1.27;;;21.90;55.30;;;21.03;60.54;96307.84;4971786;28;20058;-68
2022/07/14 01:54:37;;;;;;;4.43;1.42;;;21.80;55.60;;;21.01;60.62;96304.63;4967633;28;20034;-68
2022/07/14 01:57:09;;;;;;;2.83;1.30;;;21.80;56.10;;;20.99;61.39;96304.06;4969425;28;20062;-68
2022/07/14 01:59:36;;;;;;;3.35;1.15;;;21.80;56.20;;;20.93;61.28;96297.84;4971636;28;20031;-68
2022/07/14 02:02:01;;;;;;;3.60;1.33;;;21.70;56.30;;;20.92;61.54;96300.78;4965987;28;20038;-69
2022/07/14 02:04:27;;;;;;;4.72;1.25;;;21.70;56.10;;;20.88;61.94;96295.13;4963486;28;20138;-68
2022/07/14 02:06:54;;;;;;;2.25;1.20;;;21.70;56.30;;;20.88;61.40;96299.66;4972331;28;20126;-68
2022/07/14 02:09:20;;;;;;;2.97;1.23;;;21.70;56.70;;;20.85;61.69;96295.63;4970922;28;20035;-68
2022/07/14 02:14:31;;;;;;;2.70;1.00;;;21.60;56.50;;;20.79;62.61;96297.41;4950111;28;20540;-68
2022/07/14 02:16:56;;;;;;;3.92;1.23;;;21.60;57.00;;;20.78;62.31;96295.78;4949860;28;20031;-68
2022/07/14 02:19:24;;;;;;;2.53;1.10;;;21.60;57.00;;;20.76;62.50;96308.59;4968582;28;20038;-69
2022/07/14 02:21:51;;;;;;;3.63;1.40;;;21.60;57.30;;;20.72;63.53;96307.50;4966013;28;20159;-68
2022/07/14 02:24:17;;;;;;;2.38;1.17;;;21.60;57.60;;;20.68;63.66;96309.03;4965363;28;20626;-68
2022/07/14 02:26:43;;;;;;;5.32;1.42;;;21.50;57.70;;;20.66;63.33;96315.69;4961130;28;20146;-68
2022/07/14 02:29:08;;;;;;;1.83;1.10;;;21.50;57.50;;;20.64;62.96;96323.16;4963627;28;20063;-68
2022/07/14 02:31:34;;;;;;;3.33;1.20;;;21.50;57.30;;;20.58;63.43;96319.59;4963694;28;20062;-68
2022/07/14 02:34:01;;;;;;;2.85;1.20;;;21.40;57.40;;;20.53;62.48;96314.19;4962778;28;20067;-68
2022/07/14 02:36:27;;;;;;;1.70;1.05;;;21.30;57.30;;;20.49;63.92;96313.88;4931125;28;20039;-68
2022/07/14 02:38:52;;;;;;;3.75;1.33;;;21.30;58.00;;;20.45;63.76;96311.94;4964660;28;20129;-68
2022/07/14 02:41:18;;;;;;;2.92;1.15;;;21.10;57.70;;;20.41;64.02;96316.16;4946869;28;20526;-68
2022/07/14 02:43:44;;;;;;;2.53;1.20;;;21.10;58.00;;;20.36;63.95;96308.00;4944066;28;20490;-68
2022/07/14 02:46:10;;;;;;;2.47;0.93;;;21.10;58.10;;;20.34;63.82;96312.78;4966940;28;20060;-68
2022/07/14 02:48:36;;;;;;;3.15;1.30;;;21.10;58.40;;;20.32;63.02;96312.25;4963638;28;20054;-72
2022/07/14 02:51:05;;;;;;;4.25;1.20;;;21.10;57.60;;;20.30;64.26;96309.81;4966576;28;20031;-68
2022/07/14 02:53:31;;;;;;;1.13;0.90;;;21.10;58.00;;;20.28;64.53;96306.59;4963471;28;20422;-69
2022/07/14 02:55:57;;;;;;;1.30;1.08;;;21.10;58.20;;;20.27;63.89;96304.16;4966578;28;20046;-68
2022/07/14 02:58:24;;;;;;;2.30;1.00;;;21.10;58.20;;;20.25;64.15;96307.06;4964585;28;20039;-69
2022/07/14 03:00:49;;;;;;;1.63;0.90;;;21.10;58.20;;;20.24;64.76;96307.31;4965130;28;20089;-68
2022/07/14 03:03:15;;;;;;;1.45;1.00;;;21.10;58.30;;;20.19;63.33;96298.19;4948304;28;20038;-68
2022/07/14 03:05:42;;;;;;;2.15;1.20;;;21.00;56.60;;;20.16;63.45;96303.22;4962297;28;20035;-67
2022/07/14 03:08:08;;;;;;;2.35;1.17;;;21.00;56.50;;;20.12;62.63;96297.53;4967624;28;20118;-67
2022/07/14 03:10:34;;;;;;;1.77;1.00;;;20.90;56.50;;;20.11;61.63;96287.88;4965888;28;20090;-68
2022/07/14 03:13:00;;;;;;;2.53;1.15;;;20.90;56.50;;;20.10;62.41;96293.47;4969999;28;20027;-68
2022/07/14 03:15:26;;;;;;;1.77;1.00;;;20.90;56.50;;;20.08;62.61;96291.06;4965978;28;20031;-68
2022/07/14 03:17:52;;;;;;;5.40;1.10;;;20.90;56.60;;;20.08;61.76;96296.41;4962914;28;20055;-68
2022/07/14 03:20:17;;;;;;;3.83;1.08;;;21.00;57.10;;;20.10;62.85;96293.47;4965802;28;20055;-68
2022/07/14 03:22:43;;;;;;;3.55;0.88;;;21.00;57.30;;;20.11;62.52;96295.91;4962525;28;20062;-68
2022/07/14 03:25:09;;;;;;;2.03;1.10;;;21.00;57.20;;;20.11;63.34;96300.44;4945831;28;20070;-68
2022/07/14 03:27:35;;;;;;;2.95;1.27;;;21.00;57.30;;;20.09;63.09;96308.69;4962589;28;20109;-68
2022/07/14 03:30:05;;;;;;;2.03;1.05;;;21.00;57.50;;;20.07;64.48;96321.47;4949286;28;20351;-68
2022/07/14 03:32:31;;;;;;;1.65;1.23;;;21.00;57.80;;;20.07;64.08;96321.47;4963750;28;20534;-68
2022/07/14 03:34:59;;;;;;;3.78;1.40;;;20.90;57.80;;;20.04;63.95;96313.97;4964751;28;20034;-68
2022/07/14 03:37:25;;;;;;;2.65;1.20;;;20.80;58.10;;;20.03;63.83;96312.34;4962526;28;20044;-68
2022/07/14 03:39:51;;;;;;;2.10;1.10;;;20.90;58.50;;;20.01;63.89;96311.78;4963702;28;20478;-68
2022/07/14 03:42:17;;;;;;;3.17;1.10;;;20.90;58.40;;;20.01;64.46;96319.78;4967333;28;20374;-68
2022/07/14 03:44:44;;;;;;;1.77;1.10;;;20.90;58.70;;;20.01;65.28;96314.44;4963859;28;20039;-68
2022/07/14 03:47:10;;;;;;;1.92;1.00;;;20.90;58.90;;;20.00;64.80;96312.84;4964174;28;20035;-68
2022/07/14 03:49:36;;;;;;;1.77;1.00;;;20.90;59.00;;;19.99;65.33;96311.22;4962943;28;20058;-68
2022/07/14 03:52:02;;;;;;;2.15;1.23;;;20.90;59.30;;;19.97;65.94;96302.66;4963480;28;20053;-67
2022/07/14 03:54:28;;;;;;;2.17;1.20;;;20.80;59.40;;;19.96;66.42;96303.69;4967606;28;20043;-69
2022/07/14 03:56:54;;;;;;;2.28;1.13;;;20.80;59.30;;;19.94;66.76;96305.00;4961777;28;20053;-68
2022/07/14 03:59:19;;;;;;;4.03;1.10;;;20.90;59.60;;;19.93;65.77;96306.84;4963306;28;20451;-67
2022/07/14 04:01:45;;;;;;;3.28;1.40;;;20.80;59.30;;;19.89;65.78;96300.34;4964429;28;20530;-68
2022/07/14 04:04:11;;;;;;;3.08;1.05;;;20.70;58.20;;;19.86;65.38;96298.19;4947705;28;20074;-68
2022/07/14 04:06:37;;;;;;;4.55;1.45;;;20.70;57.90;;;19.85;65.23;96297.38;4965323;28;20069;-67
2022/07/14 04:09:03;;;;;;;2.13;1.20;;;20.80;58.00;;;19.84;66.10;96294.94;4963263;28;20043;-69
2022/07/14 04:11:29;;;;;;;1.52;1.13;;;20.80;59.30;;;19.85;66.33;96297.38;4965372;28;20031;-65
2022/07/14 04:13:54;;;;;;;2.22;0.95;;;20.80;59.40;;;19.86;66.27;96306.19;4963538;28;20206;-66
2022/07/14 04:16:20;;;;;;;1.17;0.90;;;20.80;59.00;;;19.86;65.16;96309.66;4966920;28;20059;-67
2022/07/14 04:18:46;;;;;;;2.72;1.00;;;20.80;57.90;;;19.84;65.40;96316.31;4960674;28;20076;-65
2022/07/14 04:21:11;;;;;;;2.22;1.30;;;20.70;57.80;;;19.80;65.18;96320.50;4967902;28;20062;-65
2022/07/14 04:23:38;;;;;;;4.10;1.10;;;20.60;57.70;;;19.75;63.69;96329.25;4962243;28;20063;-66
2022/07/14 04:26:05;;;;;;;4.00;1.30;;;20.60;57.80;;;19.69;64.02;96329.38;4944402;28;20367;-66
2022/07/14 04:28:31;;;;;;;2.90;1.17;;;20.50;58.20;;;19.63;64.35;96319.66;4964645;28;20022;-66
2022/07/14 04:30:57;;;;;;;2.17;1.20;;;20.40;59.00;;;19.63;65.90;96317.00;4967731;28;20035;-66
2022/07/14 04:33:23;;;;;;;9.63;1.42;;;20.60;59.10;;;19.62;65.75;96326.06;4969359;28;20222;-66
2022/07/14 04:35:49;;;;;;;3.45;1.20;;;20.50;58.80;;;19.61;65.04;96316.44;4967358;28;20062;-66
2022/07/14 04:38:15;;;;;;;1.95;1.27;;;20.50;58.90;;;19.56;64.74;96331.31;4929328;28;20114;-66
2022/07/14 04:40:51;;;;;;;3.25;1.55;;;20.50;59.00;;;19.61;67.03;96332.44;4966246;28;20035;-66
2022/07/14 04:43:18;;;;;;;2.47;1.52;;;20.60;59.10;;;19.63;65.99;96331.16;4966533;28;20062;-66
2022/07/14 04:45:45;;;;;;;4.15;1.10;;;20.70;59.00;;;19.68;66.59;96325.91;4960946;28;20030;-66
2022/07/14 04:48:11;;;;;;;1.45;1.08;;;20.70;58.70;;;19.74;65.78;96326.81;4950048;28;20126;-66
2022/07/14 04:53:21;;;;;;;4.45;1.30;;;21.00;58.90;;;19.90;66.39;96315.31;4964835;28;20117;-66
2022/07/14 04:55:47;;;;;;;9.90;7.25;;;21.10;59.30;;;19.98;67.18;96317.59;4965693;28;20054;-66
2022/07/14 04:58:12;;;;;;;3.67;1.70;;;21.20;59.20;;;20.05;66.95;96312.91;4967419;28;20121;-65
2022/07/14 05:00:38;;;;;;;3.20;1.40;;;21.20;58.30;;;20.09;65.81;96314.03;4964548;28;20118;-66
2022/07/14 05:03:04;;;;;;;2.63;1.10;;;21.30;57.70;;;20.13;65.86;96309.00;4966548;28;20075;-66
2022/07/14 05:05:30;;;;;;;2.75;0.88;;;21.30;57.30;;;20.18;65.31;96312.59;4965569;28;20074;-66
2022/07/14 05:07:55;;;;;;;2.45;1.00;;;21.30;57.70;;;20.26;65.57;96307.88;4961880;28;20062;-66
2022/07/14 05:10:21;;;;;;;2.90;1.33;;;21.50;57.40;;;20.32;65.32;96312.25;4967367;28;20066;-66
2022/07/14 05:12:47;;;;;;;1.80;1.20;;;21.60;57.10;;;20.37;65.78;96315.00;4960635;28;20030;-66
2022/07/14 05:15:13;;;;;;;3.10;1.35;;;21.60;57.10;;;20.43;65.73;96324.72;4967257;28;20062;-64
2022/07/14 05:17:38;;;;;;;2.40;1.23;;;21.60;57.30;;;20.45;64.69;96322.63;4965062;28;20122;-66
2022/07/14 05:20:05;;;;;;;5.93;1.30;;;21.60;57.20;;;20.47;65.80;96331.19;4967303;28;20034;-64
2022/07/14 05:22:41;;;;;;;6.18;1.10;;;21.60;57.50;;;20.49;64.48;96319.22;4968004;28;20093;-67
2022/07/14 05:25:08;;;;;;;3.58;1.25;;;21.60;57.30;;;20.47;64.62;96321.31;4961985;28;20464;-65
2022/07/14 05:27:34;;;;;;;3.35;1.27;;;21.50;57.00;;;20.44;63.94;96313.81;4965886;28;20473;-65
2022/07/14 05:30:00;;;;;;;3.67;1.13;;;21.40;57.50;;;20.41;64.67;96313.50;4942078;28;20567;-66
2022/07/14 05:32:25;;;;;;;2.67;1.20;;;21.50;57.90;;;20.41;65.56;96314.28;4965763;28;20062;-64
2022/07/14 05:34:52;;;;;;;3.83;1.15;;;21.50;57.80;;;20.39;64.26;96312.91;4967760;28;20067;-63
2022/07/14 05:37:17;;;;;;;5.30;2.30;;;21.40;57.50;;;20.40;65.20;96319.84;4963762;28;20381;-65
2022/07/14 05:39:43;;;;;;;2.53;1.92;;;21.50;58.20;;;20.39;65.12;96321.72;4967378;28;20059;-64
2022/07/14 05:42:10;;;;;;;3.38;1.20;;;21.50;58.30;;;20.38;65.82;96322.78;4968002;28;20146;-66
2022/07/14 05:44:36;;;;;;;1.60;1.17;;;21.40;58.40;;;20.37;66.04;96326.50;4966839;28;20134;-65
2022/07/14 05:47:01;;;;;;;2.60;1.42;;;21.50;58.30;;;20.40;65.39;96319.84;4961193;28;20122;-67
2022/07/14 05:49:27;;;;;;;3.05;1.17;;;21.50;58.40;;;20.43;65.96;96317.53;4968065;28;20038;-64
2022/07/14 05:51:53;;;;;;;4.82;1.10;;;21.50;58.20;;;20.46;65.58;96313.56;4971248;28;20066;-64
2022/07/14 05:54:19;;;;;;;2.50;1.00;;;21.60;57.90;;;20.51;65.99;96318.97;4970437;28;20066;-64
2022/07/14 05:56:44;;;;;;;3.95;1.23;;;21.60;57.80;;;20.58;65.77;96316.09;4960793;28;20199;-63
2022/07/14 05:59:10;;;;;;;4.07;1.40;;;21.70;57.70;;;20.66;66.69;96319.19;4970146;28;20066;-65
2022/07/14 06:01:36;;;;;;;2.50;1.30;;;22.00;57.90;;;20.78;65.91;96314.50;4967674;28;20066;-63
2022/07/14 06:04:01;;;;;;;7.35;1.42;;;22.10;57.60;;;20.92;66.52;96311.47;4967511;28;20074;-66
2022/07/14 06:06:27;;;;;;;5.10;1.23;;;22.40;57.50;;;21.07;66.35;96317.03;4970399;28;20061;-64
2022/07/14 06:08:53;;;;;;;1.83;1.10;;;22.60;56.20;;;21.27;65.66;96313.78;4969137;28;20109;-63
2022/07/14 06:11:19;;;;;;;6.60;4.57;;;22.90;55.80;;;21.49;65.47;96316.41;4967740;28;20121;-64
2022/07/14 06:13:45;;;;;;;4.10;1.70;;;23.20;55.30;;;21.76;64.66;96316.44;4965721;28;20062;-64
2022/07/14 06:16:11;;;;;;;5.95;2.22;;;23.50;53.70;;;22.00;64.48;96318.50;4983982;28;20027;-64
2022/07/14 06:18:37;;;;;;;2.40;1.17;;;23.80;53.80;;;22.22;63.83;96310.41;4970460;28;20031;-65
2022/07/14 06:21:09;;;;;;;4.75;1.80;;;24.10;53.00;;;22.46;62.41;96310.84;4968109;28;20150;-66
2022/07/14 06:23:35;;;;;;;3.35;1.40;;;24.40;52.10;;;22.67;61.85;96308.28;4966128;28;20038;-66
2022/07/14 06:26:11;;;;;;;3.50;0.95;;;24.60;51.10;;;22.87;60.70;96306.53;4968483;28;20031;-65
2022/07/14 06:28:36;;;;;;;5.53;2.28;;;24.80;50.50;;;23.07;61.39;96311.16;4963903;28;20027;-65
2022/07/14 06:31:03;;;;;;;4.43;2.80;;;25.10;50.10;;;23.32;60.04;96304.28;4968932;28;20070;-65
2022/07/14 06:33:28;;;;;;;2.20;1.17;;;25.60;49.40;;;23.57;59.33;96303.56;4970039;28;20029;-65
2022/07/14 06:35:54;;;;;;;3.47;1.00;;;25.90;48.30;;;23.79;58.88;96293.38;4968985;28;20664;-65
2022/07/14 06:38:20;;;;;;;1.88;1.00;;;26.10;46.40;;;24.03;57.33;96293.66;4968453;28;20570;-64
2022/07/14 06:40:45;;;;;;;3.15;1.00;;;26.50;46.20;;;24.31;56.32;96286.91;4970993;28;20487;-65
2022/07/14 06:43:11;;;;;;;2.08;1.20;;;26.80;44.90;;;24.60;55.98;96292.50;4982449;28;20526;-65
2022/07/14 06:45:38;;;;;;;4.35;0.88;;;27.20;44.10;;;24.90;54.93;96283.53;4971045;28;20581;-66
2022/07/14 06:48:04;;;;;;;4.88;1.20;;;27.60;42.90;;;25.20;53.71;96283.44;4967685;28;20070;-65
2022/07/14 06:50:30;;;;;;;2.42;1.02;;;28.10;41.60;;;25.51;52.26;96286.75;4965288;28;20050;-64
2022/07/14 06:52:56;;;;;;;3.50;0.98;;;28.40;39.90;;;25.82;51.93;96290.06;4957255;28;20062;-62
2022/07/14 06:55:21;;;;;;;4.75;0.90;;;28.70;40.30;;;26.09;50.75;96281.50;4950127;28;20114;-62
2022/07/14 06:57:47;;;;;;;4.13;1.30;;;28.80;39.20;;;26.35;50.05;96281.28;4949642;28;20043;-62
2022/07/14 07:00:14;;;;;;;3.35;0.82;;;29.10;38.60;;;26.58;49.15;96272.41;4969048;28;20123;-62
2022/07/14 07:02:40;;;;;;;5.90;0.80;;;29.30;37.70;;;26.77;47.81;96273.28;4970768;28;20118;-63
2022/07/14 07:07:51;;;;;;;6.55;1.02;;;29.80;36.80;;;27.30;47.86;96270.47;4971751;28;20042;-62
2022/07/14 07:10:17;;;;;;;1.92;0.77;;;30.40;37.00;;;27.57;46.54;96259.00;4971435;28;20554;-62
2022/07/14 07:12:43;;;;;;;1.48;0.70;;;30.70;35.00;;;27.87;46.35;96255.06;4972433;28;20078;-62
2022/07/14 07:15:09;;;;;;;1.67;0.70;;;31.20;35.60;;;28.24;44.94;96253.34;4970984;28;20046;-62
2022/07/14 07:17:35;;;;;;;1.42;0.68;;;31.60;32.60;;;28.60;42.82;96246.22;4970463;28;20070;-62
2022/07/14 07:20:01;;;;;;;1.70;0.60;;;31.80;31.60;;;28.94;41.60;96248.53;4971451;28;20070;-62
2022/07/14 07:22:27;;;;;;;6.32;3.70;;;32.20;31.20;;;29.28;42.19;96248.09;4960896;28;20046;-62
2022/07/14 07:24:52;;;;;;;3.25;1.63;;;32.40;33.20;;;29.51;41.34;96240.03;4966417;28;20081;-62
2022/07/14 07:27:18;;;;;;;5.32;2.92;;;32.10;31.70;;;29.61;39.96;96241.69;4971973;28;20213;-61
2022/07/14 07:29:44;;;;;;;3.10;1.00;;;31.90;31.40;;;29.63;39.72;96236.75;4971366;28;20088;-61
2022/07/14 07:32:11;;;;;;;3.17;0.80;;;31.60;32.90;;;29.58;39.46;96243.91;4970810;28;20050;-62
2022/07/14 07:34:37;;;;;;;3.25;0.80;;;31.50;32.40;;;29.54;39.13;96250.25;4969544;28;20066;-61
2022/07/14 07:37:04;;;;;;;4.47;0.90;;;31.50;32.10;;;29.57;38.73;96244.22;4970456;28;20525;-62
2022/07/14 07:39:30;;;;;;;1.08;0.70;;;31.80;32.50;;;29.74;39.33;96243.56;4970336;28;20076;-62
2022/07/14 07:41:59;;;;;;;2.58;0.85;;;32.30;32.80;;;29.95;39.41;96243.88;4971428;28;20031;-62
2022/07/14 07:44:25;;;;;;;1.55;0.80;;;32.60;32.20;;;30.09;39.32;96239.19;4962744;28;20090;-62
2022/07/14 07:46:51;;;;;;;3.40;0.80;;;32.20;33.00;;;30.12;38.48;96241.31;4970556;28;20031;-62
2022/07/14 07:49:18;;;;;;;2.67;0.60;;;32.10;31.90;;;30.06;39.03;96235.19;4971183;28;20027;-61
2022/07/14 07:51:43;;;;;;;1.40;0.77;;;31.70;33.50;;;29.97;38.64;96242.44;4969938;28;20039;-61
2022/07/14 07:54:09;;;;;;;2.78;1.50;;;31.60;33.80;;;29.91;38.92;96240.19;4969080;28;20058;-62
2022/07/14 07:56:35;;;;;;;3.90;1.15;;;31.70;34.00;;;29.88;38.37;96234.25;4940928;28;20447;-62
2022/07/14 07:59:00;;;;;;;5.38;1.38;;;31.70;32.30;;;29.92;38.63;96237.16;4977003;28;20132;-62
2022/07/14 08:01:26;;;;;;;3.63;0.90;;;32.00;33.70;;;29.98;38.94;96230.47;4972448;28;20482;-61
2022/07/14 08:03:52;;;;;;;1.63;0.65;;;32.10;33.90;;;30.16;38.66;96228.72;4968887;28;20501;-61
2022/07/14 08:06:17;;;;;;;1.80;0.70;;;32.70;32.70;;;30.40;38.60;96226.44;4971174;28;20511;-62
2022/07/14 08:08:43;;;;;;;1.48;0.80;;;33.00;32.70;;;30.68;37.76;96215.38;4969829;28;20089;-61
2022/07/14 08:11:09;;;;;;;5.95;1.95;;;33.20;31.40;;;30.89;37.49;96213.69;4970043;28;20063;-62
2022/07/14 08:13:35;;;;;;;4.10;1.70;;;33.00;30.80;;;30.94;36.88;96215.44;4965708;28;20055;-61
2022/07/14 08:16:00;;;;;;;29.73;11.18;;;32.80;31.50;;;30.90;36.61;96209.84;4966473;28;20117;-61
2022/07/14 08:18:26;;;;;;;20.30;7.68;;;32.60;30.90;;;30.82;36.80;96216.06;4969762;28;20110;-62
2022/07/14 08:20:52;;;;;;;8.88;3.67;;;32.60;32.00;;;30.90;36.38;96204.41;4971158;28;20038;-61
2022/07/14 08:23:19;;;;;;;6.30;2.55;;;33.30;30.80;;;31.13;37.03;96202.38;4968654;28;20070;-61
2022/07/14 08:25:45;;;;;;;6.68;3.42;;;34.00;30.80;;;31.41;36.35;96193.94;4961713;28;20089;-62
2022/07/14 08:28:10;;;;;;;4.57;2.70;;;34.40;29.60;;;31.76;35.33;96194.78;4963485;28;20721;-62
2022/07/14 08:30:36;;;;;;;21.67;7.18;;;34.90;28.90;;;32.12;34.96;96197.88;4968159;28;20511;-62
2022/07/14 08:33:02;;;;;;;8.55;1.83;;;35.30;28.60;;;32.51;35.07;96185.91;4965637;28;20035;-65
2022/07/14 08:35:28;;;;;;;4.30;1.42;;;35.70;27.60;;;32.89;34.47;96185.91;4967092;28;20034;-64
2022/07/14 08:37:54;;;;;;;2.45;0.90;;;36.10;27.40;;;33.26;33.66;96183.41;4967676;28;20097;-64
2022/07/14 08:40:23;;;;;;;2.92;0.77;;;36.50;26.10;;;33.62;33.06;96184.75;4948310;28;20150;-64
2022/07/14 08:42:50;;;;;;;4.05;0.68;;;36.80;25.70;;;33.94;31.88;96186.69;4968485;28;20077;-64
2022/07/14 08:45:22;;;;;;;1.25;0.65;;;37.00;25.20;;;34.26;31.04;96184.28;4967637;28;20098;-63
2022/07/14 08:47:48;;;;;;;11.60;4.85;;;37.10;25.60;;;34.48;30.88;96178.41;4967523;28;20545;-63
2022/07/14 08:50:23;;;;;;;3.60;1.00;;;37.30;24.20;;;34.75;29.44;96170.66;4934052;28;20058;-64
2022/07/14 08:52:49;;;;;;;2.60;1.42;;;37.50;24.40;;;34.98;30.55;96169.06;4968314;28;20031;-64
2022/07/14 08:55:17;;;;;;;1.63;0.73;;;37.60;24.30;;;35.21;29.71;96167.44;4965527;28;20149;-64
2022/07/14 08:57:43;;;;;;;1.30;0.65;;;37.80;24.30;;;35.42;28.90;96161.00;4965441;28;20030;-63
2022/07/14 09:00:14;;;;;;;2.75;0.80;;;37.90;23.00;;;35.61;28.53;96158.44;4950466;28;20560;-62
2022/07/14 09:02:52;;;;;;;2.60;0.77;;;38.10;23.40;;;35.85;27.33;96155.59;4965830;28;20107;-63
2022/07/14 09:05:18;;;;;;;1.90;0.68;;;38.50;23.20;;;36.05;28.16;96155.72;4934255;28;20045;-64
2022/07/14 09:07:44;;;;;;;1.92;0.70;;;38.30;22.00;;;36.17;27.39;96147.41;4966171;28;20311;-63
2022/07/14 09:10:15;;;;;;;5.45;2.22;;;38.50;22.00;;;36.26;26.59;96141.78;4968556;28;20122;-64
2022/07/14 09:12:41;;;;;;;3.85;2.90;;;38.50;23.10;;;36.35;26.79;96139.69;4969170;28;20046;-64
2022/07/14 09:17:56;;;;;;;1.52;0.60;;;38.70;22.60;;;36.60;26.76;96132.84;4968658;28;20058;-65
2022/07/14 09:20:23;;;;;;;1.75;0.85;;;38.80;22.30;;;36.72;26.47;96129.22;4954624;28;20059;-66
2022/07/14 09:22:53;;;;;;;4.25;0.93;;;38.80;21.80;;;36.79;24.02;96129.41;4969411;28;20371;-65
2022/07/14 09:25:19;;;;;;;2.13;0.90;;;39.00;19.80;;;36.90;25.14;96127.69;4970324;28;20039;-65
2022/07/14 09:27:46;;;;;;;1.52;0.65;;;39.20;20.80;;;37.00;25.09;96127.13;4968588;28;20125;-65
2022/07/14 09:30:12;;;;;;;2.50;0.77;;;39.30;21.00;;;37.14;25.77;96128.59;4970153;28;20092;-65
2022/07/14 09:32:59;;;;;;;3.13;0.60;;;39.60;21.50;;;37.32;23.44;96124.28;4952146;28;20035;-65
2022/07/14 09:35:45;;;;;;;3.50;0.82;;;39.80;19.30;;;37.42;23.16;96123.72;4970179;28;20064;-65
2022/07/14 09:38:20;;;;;;;2.05;0.60;;;39.60;18.80;;;37.31;22.54;96118.00;4966059;28;20041;-64
2022/07/14 09:40:47;;;;;;;2.28;0.60;;;39.10;19.50;;;37.42;24.45;96118.22;4953479;28;20031;-66
2022/07/14 09:43:13;;;;;;;3.60;0.70;;;39.60;19.80;;;37.54;24.20;96120.81;4970878;28;20035;-65
2022/07/14 09:45:45;;;;;;;1.67;0.82;;;39.90;19.60;;;37.56;21.53;96112.19;4965710;28;20074;-64
2022/07/14 09:48:19;;;;;;;6.30;1.88;;;39.60;18.20;;;37.51;22.30;96102.31;4953775;28;20065;-64
2022/07/14 09:50:54;;;;;;;3.85;2.92;;;39.50;19.80;;;37.68;22.99;96098.34;4969229;28;20051;-65
2022/07/14 09:53:35;;;;;;;1.45;0.90;;;40.20;20.10;;;37.77;21.27;96100.88;4969922;28;20034;-65
2022/07/14 09:56:07;;;;;;;1.48;0.63;;;39.90;18.00;;;37.80;21.83;96100.13;4964455;28;20580;-64
2022/07/14 09:58:51;;;;;;;0.93;0.55;;;40.20;18.60;;;37.89;21.71;96095.22;4967542;28;20505;-64
2022/07/14 10:01:20;;;;;;;2.55;0.82;;;40.20;18.00;;;37.79;23.12;96082.06;4972596;28;20037;-64
2022/07/14 10:03:50;;;;;;;1.80;0.63;;;40.40;19.20;;;37.72;23.00;96082.75;4968476;28;20038;-65
2022/07/14 10:06:17;;;;;;;2.00;0.73;;;40.30;18.50;;;37.90;22.16;96081.13;4972318;28;20617;-65
2022/07/14 10:08:45;;;;;;;9.18;0.70;;;40.90;17.60;;;38.09;22.59;96072.03;4952037;28;20379;-65
2022/07/14 10:11:11;;;;;;;1.10;0.60;;;41.10;18.50;;;38.36;22.84;96072.88;4954312;28;20054;-65
2022/07/14 10:13:38;;;;;;;1.08;0.60;;;41.80;17.40;;;38.73;22.40;96067.56;4949815;28;20031;-63
2022/07/14 10:16:04;;;;;;;2.25;0.52;;;42.20;17.40;;;39.03;22.16;96066.75;4967990;28;20086;-64
2022/07/14 10:18:30;;;;;;;2.53;0.80;;;42.10;17.70;;;39.23;21.67;96070.97;4968389;28;20049;-66
2022/07/14 10:20:59;;;;;;;3.05;0.63;;;42.10;16.70;;;39.43;21.19;96066.88;4970714;28;20027;-64
2022/07/14 10:23:25;;;;;;;1.27;0.47;;;42.50;17.50;;;39.72;21.53;96059.72;4968654;28;20074;-68
2022/07/14 10:26:00;;;;;;;2.15;0.60;;;42.80;16.90;;;40.07;20.50;96056.53;4968382;28;20041;-63
2022/07/14 10:28:26;;;;;;;0.98;0.50;;;43.70;16.70;;;40.42;21.29;96051.69;4952720;28;20039;-65